createdAt,value
2018-08-23T00:04:28.634Z,21.0
2018-08-23T00:21:15.689Z,20.6
2018-08-23T00:38:03.401Z,20.3
2018-08-23T00:54:50.852Z,20.0
2018-08-23T01:11:38.093Z,19.7
2018-08-23T01:45:11.977Z,19.4
2018-08-23T02:01:58.776Z,19.4
2018-08-23T02:35:30.839Z,19.0
2018-08-23T02:52:16.634Z,18.7
2018-08-23T03:09:02.363Z,18.7
2018-08-23T03:25:47.822Z,18.7
2018-08-23T03:42:33.321Z,18.4
2018-08-23T03:59:19.021Z,18.4
2018-08-23T04:16:04.257Z,18.1
2018-08-23T04:32:49.383Z,18.1
2018-08-23T04:49:34.645Z,18.1
2018-08-23T05:06:19.858Z,18.4
2018-08-23T05:23:05.405Z,18.7
2018-08-23T05:39:51.150Z,18.7
2018-08-23T05:56:37.604Z,19.4
2018-08-23T06:13:24.375Z,19.7
2018-08-23T06:30:11.539Z,20.3
2018-08-23T06:46:59.098Z,20.3
2018-08-23T07:03:46.787Z,20.6
2018-08-23T07:17:13.201Z,21.3
2018-08-23T07:34:01.489Z,21.6
2018-08-23T07:50:50.186Z,21.9
2018-08-23T08:04:17.270Z,22.6
2018-08-23T08:21:06.851Z,23.2
2018-08-23T08:37:56.788Z,23.5
2018-08-23T08:54:47.098Z,23.8
2018-08-23T09:04:53.568Z,24.2
2018-08-23T09:21:45.445Z,24.5
2018-08-23T09:38:36.336Z,24.8
2018-08-23T09:48:43.582Z,25.4
2018-08-23T10:02:13.537Z,26.1
2018-08-23T10:12:21.437Z,26.4
2018-08-23T10:24:12.180Z,27.0
2018-08-23T10:58:00.232Z,26.7
2018-08-23T11:14:53.663Z,26.7
2018-08-23T11:31:48.073Z,27.0
2018-08-23T11:55:28.990Z,28.0
2018-08-23T12:12:24.616Z,27.7
2018-08-23T12:29:19.810Z,28.3
2018-08-23T12:42:52.467Z,27.7
2018-08-23T13:16:43.641Z,27.7
2018-08-23T13:33:38.668Z,27.7
2018-08-23T13:50:33.707Z,27.4
2018-08-23T14:07:28.905Z,27.7
2018-08-23T14:24:23.741Z,27.4
2018-08-23T14:41:18.780Z,27.7
2018-08-23T14:58:13.725Z,27.4
2018-08-23T15:15:07.848Z,27.0
2018-08-23T15:32:01.395Z,26.7
2018-08-23T15:48:54.787Z,26.7
2018-08-23T16:05:48.085Z,26.7
2018-08-23T16:22:41.235Z,26.4
2018-08-23T16:39:34.361Z,26.4
2018-08-23T16:51:23.836Z,27.0
2018-08-23T17:08:18.353Z,26.4
2018-08-23T17:18:26.110Z,25.8
2018-08-23T17:28:33.377Z,25.1
2018-08-23T17:38:40.423Z,24.5
2018-08-23T17:55:31.338Z,24.2
2018-08-23T18:05:37.641Z,23.5
2018-08-23T18:22:27.694Z,23.2
2018-08-23T18:39:17.439Z,22.9
2018-08-23T18:56:07.056Z,22.6
2018-08-23T19:12:56.362Z,22.2
2018-08-23T19:29:45.100Z,21.9
2018-08-23T19:46:33.717Z,21.6
2018-08-23T20:03:22.053Z,21.3
2018-08-23T20:20:10.258Z,21.3
2018-08-23T20:36:58.839Z,21.0
2018-08-23T21:10:33.701Z,20.6
2018-08-23T21:27:21.306Z,20.3
2018-08-23T21:44:08.597Z,20.0
2018-08-23T22:00:55.692Z,20.0
2018-08-23T22:17:42.700Z,19.7
2018-08-23T22:34:29.646Z,20.0
2018-08-23T22:51:16.765Z,20.0
2018-08-23T23:08:04.014Z,20.0
2018-08-23T23:24:51.386Z,20.0
2018-08-23T23:41:38.763Z,20.0
2018-08-23T23:58:26.138Z,20.0
